Patrik Barak

Chefscout - Banik Ostrava
13 Nov 2027
Samstag
Verarbeitung

Persönlichkeit

Anpassungsfähigkeit (19) Ehrgeiz (7) Kontroverse (15) Loyalität (1) Druck (3) Professionalität (11) Fairness (14) Temperament (2)

Profil

Trainerstil Demokratisch
Lizenz Kontinentale A
Entschlossenheit 11
Menschenführung 4
Motivation 5
Disziplin 7
Arbeitszufriedenheit
100%
Ermüdung
0%
Rolle Chefscout
Gehalt 71.8K p/W
Vertrag 14.03.2028

Leistung

Verhalten Gut
Trainingseffektivität
33%
Spielerentwicklung
25%
Verletzungsprävention
20%
Taktische Umsetzung
30%

Letzte Ereignisse

Spieler begutachtet jetzt
Nahm an einer Scouting-Besprechung teil jetzt
Nahm an einer Scouting-Besprechung teil jetzt
Nahm an einer Scouting-Besprechung teil jetzt
Empfahl ein Transferziel jetzt
Spieler begutachtet 7T her
Spieler begutachtet 7T her
Spieler begutachtet 7T her

Aktuell beobachtet

213
Spieler Verein Status Fähigkeit Vertrauen Beobachtet Zuletzt beobachtet Letzte Stimme
Mads Bomholt Lillestrom Aktiv 99 / 100 40% 1 10.11.2027 -
Kauã Moraes Cruzeiro Aktiv 122 / 127 40% 1 10.11.2027 -
Adam Aznou Everton Aktiv 123 / 120 40% 2 08.11.2027 -
Noel Sernelius IFK Norrkoping Aktiv 119 / 128 40% 1 08.11.2027 -
Joel Ezra Enyimba Aktiv 93 / 87 40% 1 07.11.2027 -
Dylan Lawlor Cardiff City Aktiv 111 / 113 40% 1 07.11.2027 -
Trey Nyoni Doncaster Rovers Aktiv 137 / 151 40% 3 03.11.2027 -
Matías Canedo Rampla Juniors Aktiv 69 / 84 40% 1 03.11.2027 -
Felipe Faúndez O'Higgins Aktiv 102 / 90 40% 2 02.11.2027 -
Lautaro Dufur Rentistas Aktiv 103 / 111 40% 1 02.11.2027 -
João Teixeira Porto Aktiv 131 / 125 40% 1 01.11.2027 -
Kubrat Onasci Septemvri Aktiv 95 / 110 40% 1 01.11.2027 -
Josh Acheampong Oxford United Aktiv 158 / 161 40% 3 28.10.2027 -
Tiago Gordillo San Miguel Aktiv 97 / 88 40% 2 28.10.2027 -
Agustín Medina Lanús Aktiv 99 / 109 40% 2 27.10.2027 -
Gibril Sosseh Slavia Prague Aktiv 101 / 121 40% 3 27.10.2027 -
Riquelme Thompson-Jones Shrewsbury Town Aktiv 120 / 130 40% 2 25.10.2027 -
Santino Baldassarri Quilmes Aktiv 92 / 109 40% 2 24.10.2027 -
Lucas Høgsberg Paris Saint-Germain Aktiv 130 / 131 40% 1 24.10.2027 -
Julian Bjørkavåg IK Start Aktiv 83 / 77 40% 2 23.10.2027 -
Honest Ahanor Atalanta Aktiv 140 / 136 40% 2 22.10.2027 -
Josh Nichols Tranmere Rovers Aktiv 103 / 129 40% 2 22.10.2027 -
Chris Rigg Sunderland Aktiv 128 / 144 40% 1 18.10.2027 -
Toni Tamarit Alverca Aktiv 106 / 139 40% 1 18.10.2027 -
Jayden Meghoma Peterborough United Aktiv 108 / 106 40% 2 17.10.2027 -
Ayyoub Bouaddi Blackpool Aktiv 155 / 165 40% 2 16.10.2027 -
Esteban de Lima Tacuarembo Aktiv 110 / 95 40% 4 15.10.2027 -
Tobías Ramírez Sevilla Aktiv 117 / 145 40% 1 15.10.2027 -
Vitor Reis Manchester City Aktiv 124 / 134 40% 2 14.10.2027 -
Veljko Milosavljević Bournemouth Aktiv 141 / 148 40% 1 14.10.2027 -
Edvard Pettersen Sandefjord Aktiv 107 / 99 40% 3 13.10.2027 -
Sheriff Amuda Shooting Stars Aktiv 97 / 96 40% 2 11.10.2027 -
Matías Argüello Libertad Aktiv 82 / 87 40% 1 09.10.2027 -
Godwin Oham Warri Wolves Aktiv 96 / 104 40% 2 08.10.2027 -
Inti Borghetto Patronato Aktiv 99 / 105 40% 2 07.10.2027 -
Fillip Jenssen Riise Stabaek Aktiv 94 / 118 40% 1 06.10.2027 -
Camilo Rey Domenech Racing Club Aktiv 128 / 113 40% 1 05.10.2027 -
Thiago Helguera Braga Aktiv 109 / 114 40% 1 26.09.2027 -
Lucas Velásquez Huachipato Aktiv 108 / 97 40% 1 26.09.2027 -
Harrison Armstrong Everton Aktiv 128 / 137 40% 1 25.09.2027 -
Dayann Methalie Everton Aktiv 124 / 133 40% 2 24.09.2027 -
Sebastián Caballero Barranquilla Aktiv 77 / 109 40% 1 24.09.2027 -
Uche Jaguar Kwara United Aktiv 84 / 87 40% 1 23.09.2027 -
Emmanuel Fully Alverca Aktiv 85 / 93 40% 1 20.09.2027 -
Ulises Giménez River Plate Aktiv 109 / 129 40% 2 18.09.2027 -
Ayden Heaven Sheffield Wednesday Aktiv 139 / 157 40% 1 18.09.2027 -
Salvador Blopá Sporting CP Aktiv 109 / 115 40% 1 16.09.2027 -
Axel Tape Bayer Leverkusen Aktiv 116 / 122 40% 1 11.09.2027 -
Eliás Montiel Atlético Madrid Aktiv 143 / 147 40% 1 10.09.2027 -
Charlie Crew Leeds United Aktiv 129 / 115 40% 1 07.09.2027 -
Stuart Hawkins Chicago Fire Aktiv 114 / 99 40% 1 06.09.2027 -
Jan Bačkovský Dukla Prague Aktiv 113 / 117 55% 1 23.08.2027 -
Aiden Hezarkhani Real Salt Lake Aktiv 99 / 89 40% 1 13.08.2027 -
Stanislav Hofmann Zbrojovka Brno Aktiv 117 / 123 55% 1 02.08.2027 -
Martim Cunha Porto Aktiv 105 / 118 40% 2 28.06.2027 -
Mbekezeli Mbokazi Chicago Fire Verloren 132 / 147 40% 1 28.06.2027 -
Moussa Yeo Swansea City Verloren 122 / 124 40% 1 21.06.2027 -
Tadeáš Hájovský AS Trencin Aktiv 99 / 101 40% 1 15.06.2027 -
Lukáš Vorlický Slovacko Aktiv 111 / 127 51% 1 14.06.2027 -
Caio Vidal FC Copenhagen Verhandlung 128 / 129 63% 1 01.06.2027 Befürworten
Sead Hakšabanović Malmo FF Verloren 119 / 119 66% 1 01.06.2027 Befürworten
Abu Kamara Portsmouth Aktiv 102 / 122 40% 2 30.05.2027 -
Malik Mothersille Stockport County Aktiv 133 / 113 40% 2 29.05.2027 -
Harvey Blair Portsmouth Aktiv 123 / 108 40% 2 29.05.2027 -
Yousef Salech Cardiff City Aktiv 126 / 132 40% 9 28.05.2027 -
Amin Sarr Hellas Verona Aktiv 111 / 136 40% 2 28.05.2027 -
Chibueze Oputa Rangers International Aktiv 90 / 92 40% 1 28.05.2027 -
Thiago Silvero Sevilla Aktiv 143 / 129 40% 1 28.05.2027 -
Giorgi Kvernadze Frosinone Aktiv 141 / 109 40% 6 27.05.2027 -
Jay Stansfield Birmingham Aktiv 112 / 142 40% 2 27.05.2027 -
Million Manhoef Stoke City Aktiv 127 / 139 40% 1 27.05.2027 -
Enzo Cardozo Virtus Entella Aktiv 105 / 104 40% 1 26.05.2027 -
Patrick Agyemang Derby County Aktiv 113 / 132 40% 6 23.05.2027 -
Fabrizio Cavegn Bristol Rovers Aktiv 99 / 116 40% 2 23.05.2027 -
Mattéo Tramoni Pisa Aktiv 149 / 150 40% 1 23.05.2027 -
Álex Valle Como Aktiv 123 / 126 40% 1 23.05.2027 -
Joe Gelhardt Hull City Aktiv 119 / 148 40% 6 21.05.2027 -
Luca Moro Padova Aktiv 139 / 105 40% 1 21.05.2027 -
Andre Brooks Sheffield United Aktiv 126 / 134 40% 2 20.05.2027 -
Tim Iroegbunam Hull City Aktiv 149 / 135 40% 1 20.05.2027 -
Mihailo Ivanović Millwall Aktiv 130 / 127 40% 3 18.05.2027 -
Sindre Walle Egeli Nottingham Forest Aktiv 112 / 140 40% 1 18.05.2027 -
Josh Coburn Millwall Aktiv 127 / 107 40% 3 17.05.2027 -
Richard Koné Queens Park Rangers Aktiv 109 / 122 40% 2 17.05.2027 -
Bradley Fink Wycombe Wanderers Aktiv 100 / 118 40% 2 16.05.2027 -
Vitinha Genoa Verloren 143 / 142 40% 1 15.05.2027 -
Koki Saito Queens Park Rangers Aktiv 115 / 112 40% 2 14.05.2027 -
Justin Obikwu Queens Park Rangers Aktiv 98 / 119 40% 1 14.05.2027 -
Aidan Morris Middlesbrough Aktiv 138 / 126 40% 1 14.05.2027 -
Jeon Jin-Woo Sheffield Wednesday Aktiv 142 / 129 40% 2 12.05.2027 -
Sunusi Audu New Edubiase United Aktiv 75 / 93 40% 2 12.05.2027 -
Zeidane Inoussa Swansea City Aktiv 109 / 109 40% 1 12.05.2027 -
Žan Vipotnik Swansea City Aktiv 127 / 121 40% 1 10.05.2027 -
Giuseppe Di Serio Spezia Aktiv 134 / 108 40% 1 10.05.2027 -
George Brown Sheffield Wednesday Aktiv 101 / 115 40% 1 09.05.2027 -
Bernat Guiu Virtus Entella Aktiv 109 / 106 40% 1 07.05.2027 -
Rumarn Burrell Queens Park Rangers Aktiv 136 / 132 40% 5 06.05.2027 -
Edoardo Bove Watford Aktiv 139 / 122 40% 1 06.05.2027 -
Robert Mizo Aswan Aktiv 85 / 115 40% 2 05.05.2027 -
Tyreece Campbell Charlton Athletic Aktiv 114 / 118 40% 2 05.05.2027 -
Aidomo Emakhu Oxford United Aktiv 132 / 117 40% 4 03.05.2027 -
Kelly Saravanan Salford City Aktiv 106 / 123 40% 4 03.05.2027 -
Andrey Ivlev Nizhniy Novgorod Aktiv 111 / 122 40% 1 03.05.2027 -
Diego Rossi Forli Aktiv 84 / 78 40% 1 03.05.2027 -
Filippo Distefano Empoli Aktiv 135 / 125 40% 1 01.05.2027 -
Tomáš Rigo Stoke City Aktiv 143 / 146 40% 3 29.04.2027 -
Jack McGlynn Stoke City Aktiv 122 / 147 40% 2 29.04.2027 -
Etiosa Ighodaro Kaizer Chiefs Aktiv 133 / 118 40% 2 29.04.2027 -
Bojan Radulović Huddersfield Town Aktiv 131 / 121 40% 2 25.04.2027 -
Sam Bell Bristol City Aktiv 131 / 134 40% 2 25.04.2027 -
Prince Adu Kwabena Viktoria Plzen Aktiv 129 / 126 40% 9 24.04.2027 -
Gonçalo Oliveira Benfica Aktiv 123 / 108 40% 2 24.04.2027 -
Timotej Hranica MSK Zilina Aktiv 95 / 117 40% 1 24.04.2027 -
Mohamed-Ali Cho Hull City Aktiv 149 / 144 40% 1 22.04.2027 -
Max Johnston Derby County Aktiv 129 / 121 40% 1 21.04.2027 -
Moncef Zekri Sporting CP Aktiv 111 / 89 40% 1 21.04.2027 -
Riyad Idrissi Torino Aktiv 107 / 137 40% 1 21.04.2027 -
Santiago Pierotti Lecce Aktiv 115 / 111 40% 1 17.04.2027 -
Andy Irving Sparta Prague Aktiv 128 / 133 40% 3 16.04.2027 -
Matej Trusa DAC Dunajska Streda Aktiv 127 / 110 40% 2 16.04.2027 -
Sam Greenwood Bristol City Aktiv 113 / 115 40% 3 16.04.2027 -
Jovon Makama Norwich City Aktiv 122 / 135 40% 2 13.04.2027 -
Dale Taylor Blackpool Aktiv 93 / 114 40% 3 12.04.2027 -
Willem Geubbels Lecce Aktiv 141 / 131 40% 2 12.04.2027 -
Raimonds Krollis Slovan Liberec Aktiv 109 / 107 40% 3 11.04.2027 -
Isaac Price West Bromwich Albion Aktiv 146 / 128 40% 2 10.04.2027 -
John Yeboah Venezia Aktiv 138 / 125 40% 1 08.04.2027 -
Cameron Archer Southampton Aktiv 123 / 139 40% 4 05.04.2027 -
Edmund Inusah WAFA Aktiv 87 / 70 40% 1 04.04.2027 -
T-Jay Parfitt Cardiff City Aktiv 93 / 95 40% 1 04.04.2027 -
Konan N'Dri Lecce Aktiv 146 / 110 40% 2 02.04.2027 -
George Earthy Reading Aktiv 103 / 105 40% 1 02.04.2027 -
Jalen Blesa Rio Ave Aktiv 131 / 120 40% 3 31.03.2027 -
Ebrima Singhateh Jablonec Aktiv 113 / 117 40% 5 28.03.2027 -
Shea Charles Southampton Aktiv 143 / 132 40% 2 27.03.2027 -
Harry Clarke Preston Aktiv 132 / 138 40% 1 27.03.2027 -
Myles Peart-Harris Oxford United Aktiv 128 / 124 40% 2 25.03.2027 -
Freddie Draper Lincoln City Aktiv 122 / 111 40% 1 23.03.2027 -
Mathias Jørgensen Blackburn Rovers Aktiv 140 / 102 40% 2 22.03.2027 -
Ali Youssef Apollon Aktiv 116 / 116 40% 1 21.03.2027 -
Victor Ehibe Gazelle Garoua Aktiv 78 / 98 40% 1 19.03.2027 -
Jerome Karelse Golden Arrows Aktiv 121 / 104 40% 5 17.03.2027 -
Lorent Tolaj Plymouth Argyle Aktiv 111 / 124 40% 1 16.03.2027 -
Aune Heggebø West Bromwich Albion Aktiv 129 / 119 40% 3 15.03.2027 -
Tommaso Cecotti Carpi Aktiv 104 / 88 40% 1 15.03.2027 -
Daniel Vernattus Metalist Aktiv 88 / 98 40% 1 15.03.2027 -
Mojmír Chytil Hajduk Split Aktiv 130 / 146 40% 7 14.03.2027 -
Lamine Cissé Peterborough United Aktiv 106 / 116 40% 3 12.03.2027 -
Tshepang Moremi Orlando Pirates Aktiv 116 / 104 40% 3 07.03.2027 -
Kasey McAteer Ipswich Town Aktiv 122 / 112 40% 1 07.03.2027 -
Fraser Murray Wigan Athletic Aktiv 136 / 115 40% 2 06.03.2027 -
Ali Ahmed Norwich City Aktiv 127 / 118 40% 1 05.03.2027 -
Armstrong Oko-Flex Levski Aktiv 125 / 121 40% 1 04.03.2027 -
Maeson King Blackpool Aktiv 90 / 131 40% 1 02.03.2027 -
Paris Maghoma Norwich City Aktiv 111 / 105 40% 1 25.02.2027 -
John Mercado Sparta Prague Aktiv 120 / 129 40% 1 19.02.2027 -
Scott Twine Bristol City Aktiv 125 / 107 40% 1 14.02.2027 -
Tom Fellows Southampton Aktiv 111 / 116 40% 1 09.02.2027 -
Marezi Portsmouth Aktiv 125 / 125 40% 1 07.02.2027 -
Tariq Lamptey Queens Park Rangers Aktiv 140 / 143 40% 1 07.02.2027 -
Dario Grgić Sigma Olomouc Aktiv 103 / 108 40% 1 05.02.2027 -
Lukáš Mašek Slovan Liberec Aktiv 123 / 116 40% 4 04.02.2027 -
Baboucarr Faal Viktoria Plzen Aktiv 105 / 99 40% 3 03.02.2027 -
Radek Šiler Podbrezova Aktiv 105 / 118 40% 3 02.02.2027 -
Adam Idah Swansea City Aktiv 121 / 134 40% 1 02.02.2027 -
Nino Marcelli Slovan Bratislava Aktiv 116 / 121 40% 1 02.02.2027 -
Alexis Alégué Zbrojovka Brno Aktiv 110 / 124 48% 1 06.01.2027 -
Mayckel Lahdo Malmo FF Verloren 125 / 127 66% 1 01.01.2027 -
Matěj Koubek MFK Ruzomberok Aktiv 99 / 102 40% 4 28.12.2026 -
David Látal Slovacko Aktiv 101 / 103 40% 2 28.12.2026 -
Jacques Ekomié Wrexham Aktiv 126 / 123 40% 1 25.12.2026 -
David Jurásek Slavia Prague Aktiv 111 / 126 40% 2 22.12.2026 -
Ammar Ramadan DAC Dunajska Streda Aktiv 116 / 113 40% 2 22.12.2026 -
Matěj Ryneš Sparta Prague Aktiv 126 / 113 40% 1 22.12.2026 -
Brayan Gil Baltika Aktiv 131 / 118 40% 1 22.12.2026 -
Michal Sadílek Slavia Prague Aktiv 130 / 143 40% 2 19.12.2026 -
Václav Sejk Sigma Olomouc Aktiv 104 / 107 40% 2 19.12.2026 -
Aaron Connolly Ruch Aktiv 132 / 111 40% 3 15.12.2026 -
Florentino Luís Ipswich Town Aktiv 136 / 134 40% 1 15.12.2026 -
Filip Kaloč Ludogorets Aktiv 120 / 117 40% 2 10.12.2026 -
Welington Southampton Aktiv 124 / 119 40% 1 10.12.2026 -
Danijel Šturm Slavia Prague Aktiv 124 / 100 40% 1 01.12.2026 -
Merchas Doski Viktoria Plzen Aktiv 121 / 110 40% 1 01.12.2026 -
Alessio Zerbin Frosinone Aktiv 141 / 128 40% 1 01.12.2026 -
David Miculescu FCSB Aktiv 108 / 115 40% 2 29.11.2026 Mehr Infos nötig
Claudy M'Buyi Rapid Wien Aktiv 116 / 126 40% 1 21.11.2026 -
Pablo Rodríguez Lech Aktiv 116 / 135 40% 1 19.11.2026 -
Kelvin Yeboah Minnesota United FC Aktiv 123 / 118 40% 1 18.11.2026 -
Kévin Denkey FC Cincinnati Aktiv 118 / 146 40% 1 17.11.2026 -
Lukáš Červ Viktoria Plzen Aktiv 145 / 122 40% 1 13.11.2026 -
Marin Benko Zadar Aktiv 125 / 117 40% 1 13.11.2026 -
Camilo Durán Bloemfontein Celtic Aktiv 132 / 109 40% 2 08.11.2026 -
Tomás Chancalay Minnesota United FC Aktiv 125 / 120 40% 1 08.11.2026 -
Joaquín Pereyra Minnesota United FC Aktiv 136 / 120 40% 1 08.11.2026 -
Bienvenue Kanakimana Zbrojovka Brno Aktiv 102 / 111 40% 1 07.11.2026 -
Iván Angulo Orlando City Aktiv 112 / 109 40% 1 07.11.2026 -
Ki-Jana Hoever Sparta Prague Aktiv 112 / 114 40% 1 06.11.2026 -
Martín Ojeda Orlando City Aktiv 121 / 126 40% 1 05.11.2026 -
Matyáš Vojta Sparta Prague Aktiv 123 / 123 40% 1 05.11.2026 -
Cheick Oumar Souaré Viktoria Plzen Aktiv 125 / 138 40% 2 04.11.2026 -
Luca Langoni New England Revolution Aktiv 109 / 112 40% 3 29.10.2026 -
Maurice Malone Minnesota United FC Aktiv 114 / 127 40% 1 29.10.2026 -
Václav Drchal Bohemians 1905 Aktiv 103 / 121 40% 1 23.10.2026 -
Aljoša Matko Ujpest Aktiv 112 / 115 40% 1 19.10.2026 -
Maclyn Biokpo Jenewari Rivers United Aktiv 88 / 102 40% 2 16.10.2026 -
Demba Seck Partizan Aktiv 117 / 131 40% 1 16.10.2026 -
Christian Krasnodar Aktiv 133 / 131 40% 1 16.10.2026 -
Ştefan Baiaram Universitatea Craiova Aktiv 131 / 111 40% 1 14.10.2026 Mehr Infos nötig
David Da Costa Portland Timbers Aktiv 117 / 116 40% 1 13.10.2026 -
Tadeo Allende Inter Miami CF Aktiv 136 / 111 40% 1 12.10.2026 -
Agustín Anello Philadelphia Union Aktiv 143 / 120 40% 1 06.10.2026 -
Mykola Kukharevych Slovan Bratislava Aktiv 107 / 124 40% 1 05.10.2026 -
Luciano Vietto Villarreal Aktiv 107 / 129 40% 1 02.08.2026 -